Nearby METAR Reports

 

KSNK - Snyder/Winston, Texas, USA
Distance from station: SSE 25mi, 41km
Updated: Wed, 22-May-2019 5:55am CDT
Clear
Clear
 Wind from calm
Wind: Calm
Temperature: 55°F , 13°C
Dew Point: 46°F , 8°C
Humidity: 72%
Barometer: 29.68 inHg , 1005.1 hPa
Clouds: Clear
Visibility: 10 miles , 16 km
2019/05/22 10:55 KSNK 221055Z AUTO 00000KT 10SM CLR 13/08 A2968 RMK AO2 T01290079
KSWW - Sweetwater, Texas, USA
Distance from station: SE 56mi, 90km
Updated: Wed, 22-May-2019 5:55am CDT
Clear
Clear
 Wind from SSE
Wind: SSE 15 mph , 24 km/h, Gust: 21 mph , 33 km/h
Temperature: 63°F , 17°C
Dew Point: 52°F , 11°C
Humidity: 68%
Barometer: 29.70 inHg , 1005.8 hPa
Clouds: Clear
Visibility: 10 miles , 16 km
2019/05/22 10:55 KSWW 221055Z AUTO 15013G18KT 10SM CLR 17/11 A2970 RMK AO2 T01670112
 
KLBB - Lubbock, Texas, USA
Distance from station: NW 59mi, 94km
Updated: Wed, 22-May-2019 5:53am CDT
Clear
Clear
 Wind from S
Wind: S 15 mph , 24 km/h
Temperature: 63°F , 17°C
Dew Point: 39°F , 4°C
Humidity: 42%
Barometer: 29.66 inHg , 1004.4 hPa
Clouds: Clear
Visibility: 10 miles , 16 km
2019/05/22 10:53 KLBB 221053Z 19013KT 10SM CLR 17/04 A2966 RMK AO2 SLP997 T01720044
KPVW - Plainview, Texas, USA
Distance from station: NNW 85mi, 137km
Updated: Wed, 22-May-2019 5:55am CDT
Clear
Clear
 Wind from SSW
Wind: SSW 9 mph , 15 km/h
Temperature: 50°F , 10°C
Wind Chill: 46°F , 8°C
Dew Point: 32°F , 0°C
Humidity: 50%
Barometer: 29.66 inHg , 1004.4 hPa
Clouds: Clear
Visibility: 10 miles , 16 km
2019/05/22 10:55 KPVW 221055Z AUTO 21008KT 10SM CLR 10/00 A2966 RMK AO2 T01020000
 
KDYS - Dyess Afb/Abilen, Texas, USA
Distance from station: ESE 88mi, 141km
Updated: Wed, 22-May-2019 5:56am CDT
Clear
Clear
 Wind from SSE
Wind: SSE 16 mph , 26 km/h
Temperature: 64°F , 18°C
Dew Point: 55°F , 13°C
Humidity: 73%
Barometer: 29.66 inHg , 1004.4 hPa
Clouds: Clear
Visibility: 10 miles , 16 km
2019/05/22 10:56 KDYS 221056Z 16014KT 10SM CLR 18/13 A2966 RMK AO2A SLP007 T01810127 $
KGNC - Seminole, Texas, USA
Distance from station: WSW 89mi, 144km
Updated: Wed, 22-May-2019 5:55am CDT
Clear
Clear
 Wind from WSW
Wind: WSW 10 mph , 17 km/h
Temperature: 57°F , 14°C
Dew Point: 43°F , 6°C
Humidity: 59%
Barometer: 29.73 inHg , 1006.8 hPa
Clouds: Clear
Visibility: 10 miles , 16 km
2019/05/22 10:55 KGNC 221055Z AUTO 24009KT 10SM CLR 14/06 A2973 RMK AO2 T01430064
 
KE11 - Andrews, Texas, USA
Distance from station: WSW 93mi, 149km
Updated: Wed, 22-May-2019 5:55am CDT
Clear
Clear
 Wind from SSW
Wind: SSW 12 mph , 19 km/h
Temperature: 61°F , 16°C
Dew Point: 43°F , 6°C
Humidity: 52%
Barometer: 29.69 inHg , 1005.4 hPa
Clouds: Clear
Visibility: 10 miles , 16 km
2019/05/22 10:55 KE11 221055Z AUTO 20010KT 10SM CLR 16/06 A2969 RMK AO2 T01630063
KABI - Abilene, Texas, USA
Distance from station: ESE 96mi, 154km
Updated: Wed, 22-May-2019 5:52am CDT
Clear
Clear
 Wind from SSE
Wind: SSE 6 mph , 9 km/h
Temperature: 64°F , 18°C
Dew Point: 59°F , 15°C
Humidity: 83%
Barometer: 29.68 inHg , 1005.1 hPa
Clouds: Clear
Visibility: 10 miles , 16 km
2019/05/22 10:52 KABI 221052Z 16005KT 10SM CLR 18/15 A2968 RMK AO2 SLP026 T01780150
 
KMAF - Midland, Texas, USA
Distance from station: SW 96mi, 154km
Updated: Wed, 22-May-2019 5:53am CDT
Clear
Clear
 Wind from calm
Wind: Calm
Temperature: 55°F , 13°C
Dew Point: 46°F , 8°C
Humidity: 72%
Barometer: 29.68 inHg , 1005.1 hPa
Clouds: Clear
Visibility: 10 miles , 16 km
2019/05/22 10:53 KMAF 221053Z 00000KT 10SM CLR 13/08 A2968 RMK AO2 SLP014 T01280083
KCDS - Childress, Texas, USA
Distance from station: NNE 110mi, 177km
Updated: Wed, 22-May-2019 5:53am CDT
Clear
Clear
 Wind from S
Wind: S 7 mph , 11 km/h
Temperature: 55°F , 13°C
Dew Point: 41°F , 5°C
Humidity: 59%
Barometer: 29.65 inHg , 1004.1 hPa
Clouds: Clear
Visibility: 10 miles , 16 km
2019/05/22 10:53 KCDS 221053Z AUTO 19006KT 10SM CLR 13/05 A2965 RMK AO2 SLP018 T01330050
 
KSJT - San Angelo, Texas, USA
Distance from station: SSE 121mi, 194km
Updated: Wed, 22-May-2019 5:51am CDT
Overcast
Overcast
 Wind from calm
Wind: Calm
Temperature: 64°F , 18°C
Dew Point: 57°F , 14°C
Humidity: 78%
Barometer: 29.69 inHg , 1005.4 hPa
Clouds: Overcast
Visibility: 10 miles , 16 km
Cloud details: Mostly cloudy 1400 ft
Overcast 1900 ft
2019/05/22 10:51 KSJT 221051Z AUTO 00000KT 10SM BKN014 OVC019 18/14 A2969 RMK AO2 SLP033 T01780144
KHOB - Hobbs/Lea Co., New Mexico, USA
Distance from station: WSW 122mi, 196km
Updated: Wed, 22-May-2019 5:55am CDT
Clear
Clear
 Wind from SSW
Wind: SSW 8 mph , 13 km/h
Temperature: 52°F , 11°C
Dew Point: 30°F , -1°C
Humidity: 44%
Barometer: 29.70 inHg , 1005.8 hPa
Clouds: Clear
Visibility: 10 miles , 16 km
2019/05/22 10:55 KHOB 221055Z AUTO 20007KT 10SM CLR 11/M01 A2970 RMK AO2
 
KCOM - Coleman Muni, Texas, USA
Distance from station: SE 131mi, 212km
Updated: Wed, 22-May-2019 5:55am CDT
Mostly cloudy
Mostly cloudy
 Wind from S
Wind: S 5 mph , 7 km/h
Temperature: 64°F , 18°C
Dew Point: 59°F , 15°C
Humidity: 83%
Barometer: 29.71 inHg , 1006.1 hPa
Clouds: Mostly cloudy
Visibility: 10 miles , 16 km
Cloud details: Partly cloudy 1400 ft
Mostly cloudy 1900 ft
2019/05/22 10:55 KCOM 221055Z AUTO 18004KT 10SM SCT014 BKN019 18/15 A2971 RMK AO2 T01750145
KBKD - Breckenridge, Texas, USA
Distance from station: E 134mi, 215km
Updated: Wed, 22-May-2019 5:55am CDT
Clear
Clear
 Wind from S
Wind: S 13 mph , 20 km/h
Temperature: 66°F , 19°C
Dew Point: 61°F , 16°C
Humidity: 83%
Barometer: 29.67 inHg , 1004.7 hPa
Clouds: Clear
Visibility: 7 miles , 11 km
2019/05/22 10:55 KBKD 221055Z AUTO 18011KT 7SM CLR 19/16 A2967 RMK AO2 T01870156
 
KF05 - Vernon Wilbarger, Texas, USA
Distance from station: NE 137mi, 220km
Updated: Wed, 22-May-2019 5:55am CDT
Clear
Clear
 Wind from S
Wind: S 9 mph , 15 km/h
Temperature: 64°F , 18°C
Dew Point: 54°F , 12°C
Humidity: 68%
Barometer: 29.65 inHg , 1004.1 hPa
Clouds: Clear
Visibility: 10 miles , 16 km
2019/05/22 10:55 KF05 221055Z AUTO 19008KT 10SM CLR 18/12 A2965 RMK AO1 T01750118